sensor_id;sensor_type;location;lat;lon;timestamp;temperature;humidity
35804;DHT22;21924;51.934;7.414;2023-09-12T00:01:58;18.80;99.90
35804;DHT22;21924;51.934;7.414;2023-09-12T00:05:00;18.80;99.90
35804;DHT22;21924;51.934;7.414;2023-09-12T00:08:00;19.00;99.90
35804;DHT22;21924;51.934;7.414;2023-09-12T00:14:44;19.00;99.90
35804;DHT22;21924;51.934;7.414;2023-09-12T00:18:35;19.00;99.90
35804;DHT22;21924;51.934;7.414;2023-09-12T00:22:00;19.10;99.90
35804;DHT22;21924;51.934;7.414;2023-09-12T00:26:05;19.10;99.90
35804;DHT22;21924;51.934;7.414;2023-09-12T00:30:00;19.10;99.90
35804;DHT22;21924;51.934;7.414;2023-09-12T00:33:00;19.10;99.90
35804;DHT22;21924;51.934;7.414;2023-09-12T00:36:02;19.10;99.90
35804;DHT22;21924;51.934;7.414;2023-09-12T00:38:47;19.10;99.90
35804;DHT22;21924;51.934;7.414;2023-09-12T00:42:01;19.00;99.90
35804;DHT22;21924;51.934;7.414;2023-09-12T00:45:00;19.00;99.90
35804;DHT22;21924;51.934;7.414;2023-09-12T00:48:03;18.90;99.90
35804;DHT22;21924;51.934;7.414;2023-09-12T00:51:40;18.90;99.90
35804;DHT22;21924;51.934;7.414;2023-09-12T00:58:06;18.80;99.90
35804;DHT22;21924;51.934;7.414;2023-09-12T01:01:04;18.80;99.90
35804;DHT22;21924;51.934;7.414;2023-09-12T01:04:04;18.70;99.90
35804;DHT22;21924;51.934;7.414;2023-09-12T01:07:04;18.70;99.90
35804;DHT22;21924;51.934;7.414;2023-09-12T01:13:42;18.70;99.90
35804;DHT22;21924;51.934;7.414;2023-09-12T01:16:32;18.70;99.90
35804;DHT22;21924;51.934;7.414;2023-09-12T01:43:04;18.50;99.90
35804;DHT22;21924;51.934;7.414;2023-09-12T01:57:05;18.10;99.90
35804;DHT22;21924;51.934;7.414;2023-09-12T02:06:16;18.00;99.90
35804;DHT22;21924;51.934;7.414;2023-09-12T02:09:06;18.00;99.90
35804;DHT22;21924;51.934;7.414;2023-09-12T02:12:06;18.00;99.90
35804;DHT22;21924;51.934;7.414;2023-09-12T02:15:09;18.00;99.90
35804;DHT22;21924;51.934;7.414;2023-09-12T02:18:09;18.00;99.90
35804;DHT22;21924;51.934;7.414;2023-09-12T02:21:02;17.90;99.90
35804;DHT22;21924;51.934;7.414;2023-09-12T02:23:46;17.90;99.90
35804;DHT22;21924;51.934;7.414;2023-09-12T02:26:30;17.90;99.90
35804;DHT22;21924;51.934;7.414;2023-09-12T02:29:35;17.90;99.90
35804;DHT22;21924;51.934;7.414;2023-09-12T02:39:34;17.90;99.90
35804;DHT22;21924;51.934;7.414;2023-09-12T02:42:19;18.00;99.90
35804;DHT22;21924;51.934;7.414;2023-09-12T02:45:08;18.00;99.90
35804;DHT22;21924;51.934;7.414;2023-09-12T02:48:09;18.00;99.90
35804;DHT22;21924;51.934;7.414;2023-09-12T02:51:09;17.90;99.90
35804;DHT22;21924;51.934;7.414;2023-09-12T02:54:11;17.80;99.90
35804;DHT22;21924;51.934;7.414;2023-09-12T03:01:14;17.70;99.90
35804;DHT22;21924;51.934;7.414;2023-09-12T03:07:39;17.70;99.90
35804;DHT22;21924;51.934;7.414;2023-09-12T03:10:52;17.70;99.90
35804;DHT22;21924;51.934;7.414;2023-09-12T03:18:10;17.70;99.90
35804;DHT22;21924;51.934;7.414;2023-09-12T03:20:56;17.70;99.90
35804;DHT22;21924;51.934;7.414;2023-09-12T03:31:16;17.80;99.90
35804;DHT22;21924;51.934;7.414;2023-09-12T03:34:13;17.80;99.90
35804;DHT22;21924;51.934;7.414;2023-09-12T03:37:12;17.80;99.90
35804;DHT22;21924;51.934;7.414;2023-09-12T03:48:12;17.70;99.90
35804;DHT22;21924;51.934;7.414;2023-09-12T03:51:12;17.60;99.90
35804;DHT22;21924;51.934;7.414;2023-09-12T03:58:12;17.60;99.90
35804;DHT22;21924;51.934;7.414;2023-09-12T04:12:15;17.60;99.90
35804;DHT22;21924;51.934;7.414;2023-09-12T04:19:15;17.50;99.90
35804;DHT22;21924;51.934;7.414;2023-09-12T04:33:18;17.50;99.90
35804;DHT22;21924;51.934;7.414;2023-09-12T04:36:02;17.50;99.90
35804;DHT22;21924;51.934;7.414;2023-09-12T04:39:18;17.40;99.90
35804;DHT22;21924;51.934;7.414;2023-09-12T04:53:18;17.20;99.90
35804;DHT22;21924;51.934;7.414;2023-09-12T04:56:17;17.20;99.90
35804;DHT22;21924;51.934;7.414;2023-09-12T04:59:17;17.10;99.90
35804;DHT22;21924;51.934;7.414;2023-09-12T05:02:16;17.10;99.90
35804;DHT22;21924;51.934;7.414;2023-09-12T05:09:18;17.10;99.90
35804;DHT22;21924;51.934;7.414;2023-09-12T05:12:27;17.10;99.90
35804;DHT22;21924;51.934;7.414;2023-09-12T05:16:17;17.10;99.90
35804;DHT22;21924;51.934;7.414;2023-09-12T05:19:17;17.10;99.90
35804;DHT22;21924;51.934;7.414;2023-09-12T05:22:19;17.10;99.90
35804;DHT22;21924;51.934;7.414;2023-09-12T05:25:19;17.20;99.90
35804;DHT22;21924;51.934;7.414;2023-09-12T05:28:19;17.30;99.90
35804;DHT22;21924;51.934;7.414;2023-09-12T05:31:18;17.30;99.90
35804;DHT22;21924;51.934;7.414;2023-09-12T05:34:17;17.40;99.90
35804;DHT22;21924;51.934;7.414;2023-09-12T05:37:20;17.30;99.90
35804;DHT22;21924;51.934;7.414;2023-09-12T05:40:20;17.40;99.90
35804;DHT22;21924;51.934;7.414;2023-09-12T05:43:20;17.40;99.90
35804;DHT22;21924;51.934;7.414;2023-09-12T05:46:19;17.50;99.90
35804;DHT22;21924;51.934;7.414;2023-09-12T05:49:18;17.50;99.90
35804;DHT22;21924;51.934;7.414;2023-09-12T06:03:24;17.60;99.90
35804;DHT22;21924;51.934;7.414;2023-09-12T06:13:38;17.80;99.90
35804;DHT22;21924;51.934;7.414;2023-09-12T06:16:22;17.90;99.90
35804;DHT22;21924;51.934;7.414;2023-09-12T06:19:22;17.90;99.90
35804;DHT22;21924;51.934;7.414;2023-09-12T06:22:12;17.90;99.90
35804;DHT22;21924;51.934;7.414;2023-09-12T06:24:56;17.90;99.90
35804;DHT22;21924;51.934;7.414;2023-09-12T06:31:22;17.80;99.90
35804;DHT22;21924;51.934;7.414;2023-09-12T06:38:22;17.80;99.90
35804;DHT22;21924;51.934;7.414;2023-09-12T06:41:23;17.80;99.90
35804;DHT22;21924;51.934;7.414;2023-09-12T06:51:29;17.80;99.90
35804;DHT22;21924;51.934;7.414;2023-09-12T06:57:55;17.90;99.90
35804;DHT22;21924;51.934;7.414;2023-09-12T07:00:39;17.90;99.90
35804;DHT22;21924;51.934;7.414;2023-09-12T07:03:24;17.90;99.90
35804;DHT22;21924;51.934;7.414;2023-09-12T07:06:24;17.90;99.90
35804;DHT22;21924;51.934;7.414;2023-09-12T07:09:26;17.90;99.90
35804;DHT22;21924;51.934;7.414;2023-09-12T07:16:25;18.00;99.90
35804;DHT22;21924;51.934;7.414;2023-09-12T07:19:25;18.10;99.90
35804;DHT22;21924;51.934;7.414;2023-09-12T07:22:25;18.00;99.90
35804;DHT22;21924;51.934;7.414;2023-09-12T07:25:25;18.00;99.90
35804;DHT22;21924;51.934;7.414;2023-09-12T07:28:26;18.00;99.90
35804;DHT22;21924;51.934;7.414;2023-09-12T07:31:26;18.00;99.90
35804;DHT22;21924;51.934;7.414;2023-09-12T07:34:25;18.00;99.90
35804;DHT22;21924;51.934;7.414;2023-09-12T07:37:28;18.00;99.90
35804;DHT22;21924;51.934;7.414;2023-09-12T07:40:28;18.00;99.90
35804;DHT22;21924;51.934;7.414;2023-09-12T07:50:37;18.00;99.90
35804;DHT22;21924;51.934;7.414;2023-09-12T08:01:28;18.00;99.90
35804;DHT22;21924;51.934;7.414;2023-09-12T08:04:29;18.00;99.90
35804;DHT22;21924;51.934;7.414;2023-09-12T08:07:29;18.00;99.90
35804;DHT22;21924;51.934;7.414;2023-09-12T08:14:30;18.00;99.90
35804;DHT22;21924;51.934;7.414;2023-09-12T08:24:36;18.10;99.90
35804;DHT22;21924;51.934;7.414;2023-09-12T08:27:51;18.00;99.90
35804;DHT22;21924;51.934;7.414;2023-09-12T08:34:31;18.10;99.90
35804;DHT22;21924;51.934;7.414;2023-09-12T08:37:32;18.20;99.90
35804;DHT22;21924;51.934;7.414;2023-09-12T08:40:17;18.30;99.90
35804;DHT22;21924;51.934;7.414;2023-09-12T08:43:32;18.40;99.90
35804;DHT22;21924;51.934;7.414;2023-09-12T08:46:31;18.40;99.90
35804;DHT22;21924;51.934;7.414;2023-09-12T09:01:32;18.50;99.90
35804;DHT22;21924;51.934;7.414;2023-09-12T09:08:31;18.60;99.90
35804;DHT22;21924;51.934;7.414;2023-09-12T09:15:31;18.70;99.90
35804;DHT22;21924;51.934;7.414;2023-09-12T09:22:25;18.90;99.90
35804;DHT22;21924;51.934;7.414;2023-09-12T09:25:32;19.30;99.90
35804;DHT22;21924;51.934;7.414;2023-09-12T09:28:34;19.40;99.90
35804;DHT22;21924;51.934;7.414;2023-09-12T09:31:34;19.50;99.90
35804;DHT22;21924;51.934;7.414;2023-09-12T09:38:34;19.60;99.90
35804;DHT22;21924;51.934;7.414;2023-09-12T09:42:34;19.70;99.90
35804;DHT22;21924;51.934;7.414;2023-09-12T09:49:35;20.10;99.90
35804;DHT22;21924;51.934;7.414;2023-09-12T09:52:34;20.10;99.90
35804;DHT22;21924;51.934;7.414;2023-09-12T09:59:00;20.00;99.90
35804;DHT22;21924;51.934;7.414;2023-09-12T10:01:45;20.10;99.90
35804;DHT22;21924;51.934;7.414;2023-09-12T10:04:57;20.20;99.90
35804;DHT22;21924;51.934;7.414;2023-09-12T10:08:03;20.30;99.90
35804;DHT22;21924;51.934;7.414;2023-09-12T10:14:47;20.80;99.90
35804;DHT22;21924;51.934;7.414;2023-09-12T10:21:37;21.00;99.90
35804;DHT22;21924;51.934;7.414;2023-09-12T10:25:37;21.10;99.90
35804;DHT22;21924;51.934;7.414;2023-09-12T10:28:41;21.10;99.90
35804;DHT22;21924;51.934;7.414;2023-09-12T10:31:26;21.20;99.90
35804;DHT22;21924;51.934;7.414;2023-09-12T10:34:18;21.60;99.90
35804;DHT22;21924;51.934;7.414;2023-09-12T10:41:05;22.00;99.90
35804;DHT22;21924;51.934;7.414;2023-09-12T10:43:50;22.30;99.90
35804;DHT22;21924;51.934;7.414;2023-09-12T10:46:40;22.20;99.90
35804;DHT22;21924;51.934;7.414;2023-09-12T10:49:24;22.10;99.90
35804;DHT22;21924;51.934;7.414;2023-09-12T10:52:28;22.00;99.90
35804;DHT22;21924;51.934;7.414;2023-09-12T10:55:16;21.90;99.90
35804;DHT22;21924;51.934;7.414;2023-09-12T10:58:07;21.80;99.90
35804;DHT22;21924;51.934;7.414;2023-09-12T11:01:24;21.90;99.90
35804;DHT22;21924;51.934;7.414;2023-09-12T11:04:30;21.90;99.90
35804;DHT22;21924;51.934;7.414;2023-09-12T11:10:21;22.10;99.90
35804;DHT22;21924;51.934;7.414;2023-09-12T11:13:37;22.40;99.90
35804;DHT22;21924;51.934;7.414;2023-09-12T11:24:45;22.80;99.90
35804;DHT22;21924;51.934;7.414;2023-09-12T11:28:05;23.00;99.90
35804;DHT22;21924;51.934;7.414;2023-09-12T11:30:57;23.10;99.90
35804;DHT22;21924;51.934;7.414;2023-09-12T11:33:48;23.40;99.90
35804;DHT22;21924;51.934;7.414;2023-09-12T11:40:46;23.40;99.90
35804;DHT22;21924;51.934;7.414;2023-09-12T11:43:46;22.90;99.90
35804;DHT22;21924;51.934;7.414;2023-09-12T11:50:49;23.00;99.90
35804;DHT22;21924;51.934;7.414;2023-09-12T11:54:48;23.10;99.90
35804;DHT22;21924;51.934;7.414;2023-09-12T11:57:49;23.00;99.90
35804;DHT22;21924;51.934;7.414;2023-09-12T12:00:51;23.20;99.90
35804;DHT22;21924;51.934;7.414;2023-09-12T12:03:48;23.40;99.90
35804;DHT22;21924;51.934;7.414;2023-09-12T12:06:52;23.60;99.90
35804;DHT22;21924;51.934;7.414;2023-09-12T12:09:50;23.70;99.90
35804;DHT22;21924;51.934;7.414;2023-09-12T12:16:53;23.60;99.90
35804;DHT22;21924;51.934;7.414;2023-09-12T12:34:52;23.60;99.90
35804;DHT22;21924;51.934;7.414;2023-09-12T12:41:52;23.50;99.90
35804;DHT22;21924;51.934;7.414;2023-09-12T12:59:53;24.20;99.90
35804;DHT22;21924;51.934;7.414;2023-09-12T13:06:26;24.40;99.90
35804;DHT22;21924;51.934;7.414;2023-09-12T13:16:33;24.50;99.90
35804;DHT22;21924;51.934;7.414;2023-09-12T13:19:55;24.60;99.90
35804;DHT22;21924;51.934;7.414;2023-09-12T13:22:55;24.80;99.90
35804;DHT22;21924;51.934;7.414;2023-09-12T13:25:58;24.80;99.90
35804;DHT22;21924;51.934;7.414;2023-09-12T13:28:58;24.70;99.90
35804;DHT22;21924;51.934;7.414;2023-09-12T13:31:57;24.50;99.90
35804;DHT22;21924;51.934;7.414;2023-09-12T13:34:57;24.50;99.90
35804;DHT22;21924;51.934;7.414;2023-09-12T13:37:57;24.80;99.90
35804;DHT22;21924;51.934;7.414;2023-09-12T13:40:41;25.10;99.90
35804;DHT22;21924;51.934;7.414;2023-09-12T13:55:01;26.20;99.90
35804;DHT22;21924;51.934;7.414;2023-09-12T13:57:59;25.70;99.90
35804;DHT22;21924;51.934;7.414;2023-09-12T14:00:59;25.30;99.90
35804;DHT22;21924;51.934;7.414;2023-09-12T14:03:55;24.90;99.90
35804;DHT22;21924;51.934;7.414;2023-09-12T14:06:58;24.70;99.90
35804;DHT22;21924;51.934;7.414;2023-09-12T14:10:01;24.40;99.90
35804;DHT22;21924;51.934;7.414;2023-09-12T14:17:01;24.50;99.90
35804;DHT22;21924;51.934;7.414;2023-09-12T14:20:00;24.40;99.90
35804;DHT22;21924;51.934;7.414;2023-09-12T14:23:00;24.20;99.90
35804;DHT22;21924;51.934;7.414;2023-09-12T14:30:00;24.00;99.90
35804;DHT22;21924;51.934;7.414;2023-09-12T14:32:59;23.90;99.90
35804;DHT22;21924;51.934;7.414;2023-09-12T14:36:02;23.90;99.90
35804;DHT22;21924;51.934;7.414;2023-09-12T14:39:06;23.90;99.90
35804;DHT22;21924;51.934;7.414;2023-09-12T14:45:33;23.80;99.90
35804;DHT22;21924;51.934;7.414;2023-09-12T14:48:18;23.80;99.90
35804;DHT22;21924;51.934;7.414;2023-09-12T14:51:02;23.60;99.90
35804;DHT22;21924;51.934;7.414;2023-09-12T14:53:47;23.60;99.90
35804;DHT22;21924;51.934;7.414;2023-09-12T15:00:43;23.40;99.90
35804;DHT22;21924;51.934;7.414;2023-09-12T15:04:04;23.30;99.90
35804;DHT22;21924;51.934;7.414;2023-09-12T15:07:04;23.30;99.90
35804;DHT22;21924;51.934;7.414;2023-09-12T15:10:03;23.30;99.90
35804;DHT22;21924;51.934;7.414;2023-09-12T15:13:19;23.30;99.90
35804;DHT22;21924;51.934;7.414;2023-09-12T15:16:04;23.30;99.90
35804;DHT22;21924;51.934;7.414;2023-09-12T15:18:50;23.30;99.90
35804;DHT22;21924;51.934;7.414;2023-09-12T15:21:35;23.30;99.90
35804;DHT22;21924;51.934;7.414;2023-09-12T15:24:20;23.20;99.90
35804;DHT22;21924;51.934;7.414;2023-09-12T15:27:41;23.20;99.90
35804;DHT22;21924;51.934;7.414;2023-09-12T15:31:02;23.10;99.90
35804;DHT22;21924;51.934;7.414;2023-09-12T15:33:47;23.10;99.90
35804;DHT22;21924;51.934;7.414;2023-09-12T15:39:52;23.00;99.90
35804;DHT22;21924;51.934;7.414;2023-09-12T15:42:42;22.90;99.90
35804;DHT22;21924;51.934;7.414;2023-09-12T15:46:03;23.00;99.90
35804;DHT22;21924;51.934;7.414;2023-09-12T15:49:03;22.90;99.90
35804;DHT22;21924;51.934;7.414;2023-09-12T15:52:04;22.90;99.90
35804;DHT22;21924;51.934;7.414;2023-09-12T15:55:37;22.90;99.90
35804;DHT22;21924;51.934;7.414;2023-09-12T15:59:26;22.90;99.90
35804;DHT22;21924;51.934;7.414;2023-09-12T16:02:56;23.00;99.90
35804;DHT22;21924;51.934;7.414;2023-09-12T16:06:24;23.60;99.90
35804;DHT22;21924;51.934;7.414;2023-09-12T16:28:27;23.70;99.90
35804;DHT22;21924;51.934;7.414;2023-09-12T16:31:12;23.20;99.90
35804;DHT22;21924;51.934;7.414;2023-09-12T16:33:58;23.00;99.90
35804;DHT22;21924;51.934;7.414;2023-09-12T16:37:06;22.80;99.90
35804;DHT22;21924;51.934;7.414;2023-09-12T16:40:07;22.60;99.90
35804;DHT22;21924;51.934;7.414;2023-09-12T16:43:07;22.50;99.90
35804;DHT22;21924;51.934;7.414;2023-09-12T16:46:07;22.40;99.90
35804;DHT22;21924;51.934;7.414;2023-09-12T16:49:09;22.30;99.90
35804;DHT22;21924;51.934;7.414;2023-09-12T16:59:19;22.00;99.90
35804;DHT22;21924;51.934;7.414;2023-09-12T17:02:13;21.80;99.90
35804;DHT22;21924;51.934;7.414;2023-09-12T17:05:09;21.70;99.90
35804;DHT22;21924;51.934;7.414;2023-09-12T17:08:09;21.70;99.90
35804;DHT22;21924;51.934;7.414;2023-09-12T17:10:59;21.60;99.90
35804;DHT22;21924;51.934;7.414;2023-09-12T17:14:08;21.40;99.90
35804;DHT22;21924;51.934;7.414;2023-09-12T17:16:52;21.30;99.90
35804;DHT22;21924;51.934;7.414;2023-09-12T17:19:38;21.20;99.90
35804;DHT22;21924;51.934;7.414;2023-09-12T17:22:23;21.10;99.90
35804;DHT22;21924;51.934;7.414;2023-09-12T17:29:08;21.10;99.90
35804;DHT22;21924;51.934;7.414;2023-09-12T17:32:08;21.00;99.90
35804;DHT22;21924;51.934;7.414;2023-09-12T17:35:12;20.90;99.90
35804;DHT22;21924;51.934;7.414;2023-09-12T17:37:56;20.90;99.90
35804;DHT22;21924;51.934;7.414;2023-09-12T17:40:46;20.70;99.90
35804;DHT22;21924;51.934;7.414;2023-09-12T17:43:36;20.70;99.90
35804;DHT22;21924;51.934;7.414;2023-09-12T17:46:20;20.60;99.90
35804;DHT22;21924;51.934;7.414;2023-09-12T17:49:07;20.60;99.90
35804;DHT22;21924;51.934;7.414;2023-09-12T17:51:53;20.50;99.90
35804;DHT22;21924;51.934;7.414;2023-09-12T18:01:51;20.50;99.90
35804;DHT22;21924;51.934;7.414;2023-09-12T18:04:44;20.50;99.90
35804;DHT22;21924;51.934;7.414;2023-09-12T18:07:44;20.40;99.90
35804;DHT22;21924;51.934;7.414;2023-09-12T18:10:29;20.40;99.90
35804;DHT22;21924;51.934;7.414;2023-09-12T18:13:13;20.50;99.90
35804;DHT22;21924;51.934;7.414;2023-09-12T18:15:58;20.40;99.90
35804;DHT22;21924;51.934;7.414;2023-09-12T18:18:51;20.50;99.90
35804;DHT22;21924;51.934;7.414;2023-09-12T18:25:41;20.50;99.90
35804;DHT22;21924;51.934;7.414;2023-09-12T18:28:45;20.50;99.90
35804;DHT22;21924;51.934;7.414;2023-09-12T18:31:33;20.40;99.90
35804;DHT22;21924;51.934;7.414;2023-09-12T18:34:19;20.50;99.90
35804;DHT22;21924;51.934;7.414;2023-09-12T18:37:16;20.40;99.90
35804;DHT22;21924;51.934;7.414;2023-09-12T18:40:01;20.30;99.90
35804;DHT22;21924;51.934;7.414;2023-09-12T18:42:47;20.30;99.90
35804;DHT22;21924;51.934;7.414;2023-09-12T18:45:51;20.30;99.90
35804;DHT22;21924;51.934;7.414;2023-09-12T18:49:18;20.30;99.90
35804;DHT22;21924;51.934;7.414;2023-09-12T18:59:42;20.30;99.90
35804;DHT22;21924;51.934;7.414;2023-09-12T19:03:15;20.30;99.90
35804;DHT22;21924;51.934;7.414;2023-09-12T19:06:15;20.30;99.90
35804;DHT22;21924;51.934;7.414;2023-09-12T19:09:15;20.30;99.90
35804;DHT22;21924;51.934;7.414;2023-09-12T19:12:15;20.20;99.90
35804;DHT22;21924;51.934;7.414;2023-09-12T19:19:17;20.20;99.90
35804;DHT22;21924;51.934;7.414;2023-09-12T19:22:17;20.20;99.90
35804;DHT22;21924;51.934;7.414;2023-09-12T19:32:22;20.20;99.90
35804;DHT22;21924;51.934;7.414;2023-09-12T19:42:29;20.10;99.90
35804;DHT22;21924;51.934;7.414;2023-09-12T19:49:18;20.10;99.90
35804;DHT22;21924;51.934;7.414;2023-09-12T19:52:18;20.00;99.90
35804;DHT22;21924;51.934;7.414;2023-09-12T19:59:18;20.00;99.90
35804;DHT22;21924;51.934;7.414;2023-09-12T20:02:21;20.00;99.90
35804;DHT22;21924;51.934;7.414;2023-09-12T20:09:21;20.00;99.90
35804;DHT22;21924;51.934;7.414;2023-09-12T20:16:20;20.10;99.90
35804;DHT22;21924;51.934;7.414;2023-09-12T20:23:20;20.10;99.90
35804;DHT22;21924;51.934;7.414;2023-09-12T20:26:20;20.00;99.90
35804;DHT22;21924;51.934;7.414;2023-09-12T20:33:20;20.00;99.90
35804;DHT22;21924;51.934;7.414;2023-09-12T20:36:23;19.90;99.90
35804;DHT22;21924;51.934;7.414;2023-09-12T20:39:27;19.90;99.90
35804;DHT22;21924;51.934;7.414;2023-09-12T20:42:21;19.80;99.90
35804;DHT22;21924;51.934;7.414;2023-09-12T20:45:21;19.80;99.90
35804;DHT22;21924;51.934;7.414;2023-09-12T20:52:23;19.80;99.90
35804;DHT22;21924;51.934;7.414;2023-09-12T20:55:22;19.70;99.90
35804;DHT22;21924;51.934;7.414;2023-09-12T21:09:28;19.70;99.90
35804;DHT22;21924;51.934;7.414;2023-09-12T21:27:25;19.60;99.90
35804;DHT22;21924;51.934;7.414;2023-09-12T21:30:25;19.60;99.90
35804;DHT22;21924;51.934;7.414;2023-09-12T21:59:26;19.40;99.90
35804;DHT22;21924;51.934;7.414;2023-09-12T22:28:28;19.30;99.90
35804;DHT22;21924;51.934;7.414;2023-09-12T22:31:22;19.30;99.90
35804;DHT22;21924;51.934;7.414;2023-09-12T22:45:43;19.30;99.90
35804;DHT22;21924;51.934;7.414;2023-09-12T22:52:29;19.30;99.90
35804;DHT22;21924;51.934;7.414;2023-09-12T22:55:29;19.30;99.90
35804;DHT22;21924;51.934;7.414;2023-09-12T23:02:30;19.30;99.90
35804;DHT22;21924;51.934;7.414;2023-09-12T23:13:30;19.30;99.90
35804;DHT22;21924;51.934;7.414;2023-09-12T23:20:30;19.20;99.90
35804;DHT22;21924;51.934;7.414;2023-09-12T23:27:30;19.20;99.90
35804;DHT22;21924;51.934;7.414;2023-09-12T23:30:33;19.20;99.90
35804;DHT22;21924;51.934;7.414;2023-09-12T23:37:33;19.10;99.90
35804;DHT22;21924;51.934;7.414;2023-09-12T23:44:31;19.10;99.90
35804;DHT22;21924;51.934;7.414;2023-09-12T23:47:33;19.10;99.90
